createdAt,value
2018-05-18T00:00:04.111Z,93.03
2018-05-18T00:02:31.607Z,99.07
2018-05-18T00:04:59.085Z,89.77
2018-05-18T00:07:26.744Z,91.87
2018-05-18T00:09:54.234Z,90.18
2018-05-18T00:12:21.716Z,83.90
2018-05-18T00:14:49.209Z,85.80
2018-05-18T00:17:16.697Z,81.33
2018-05-18T00:19:44.188Z,79.13
2018-05-18T00:22:11.668Z,81.33
2018-05-18T00:24:39.163Z,82.53
2018-05-18T00:27:06.637Z,76.28
2018-05-18T00:29:34.111Z,77.37
2018-05-18T00:32:01.604Z,76.80
2018-05-18T00:34:29.080Z,78.12
2018-05-18T00:36:56.567Z,76.93
2018-05-18T00:39:24.039Z,73.15
2018-05-18T00:41:51.780Z,74.73
2018-05-18T00:44:19.284Z,74.30
2018-05-18T00:46:46.756Z,73.17
2018-05-18T00:49:14.241Z,71.60
2018-05-18T00:51:41.708Z,70.50
2018-05-18T00:54:09.221Z,68.60
2018-05-18T00:56:36.695Z,70.23
2018-05-18T00:59:04.168Z,70.90
2018-05-18T01:01:31.647Z,74.80
2018-05-18T01:03:59.132Z,72.60
2018-05-18T01:06:26.632Z,71.30
2018-05-18T01:08:54.096Z,70.43
2018-05-18T01:11:21.577Z,69.67
2018-05-18T01:13:49.070Z,68.37
2018-05-18T01:16:16.548Z,69.60
2018-05-18T01:18:44.040Z,66.87
2018-05-18T01:21:11.516Z,66.57
2018-05-18T01:23:39.013Z,75.70
2018-05-18T01:26:06.499Z,81.80
2018-05-18T01:28:33.976Z,75.67
2018-05-18T01:31:01.492Z,79.10
2018-05-18T01:33:28.978Z,82.00
2018-05-18T01:35:56.460Z,82.17
2018-05-18T01:38:23.955Z,84.20
2018-05-18T01:40:51.423Z,86.67
2018-05-18T01:43:18.912Z,89.40
2018-05-18T01:45:46.388Z,85.20
2018-05-18T01:48:13.866Z,86.10
2018-05-18T01:50:41.353Z,87.27
2018-05-18T01:53:08.827Z,91.03
2018-05-18T01:55:36.320Z,88.90
2018-05-18T01:58:03.788Z,92.27
2018-05-18T02:00:31.282Z,93.87
2018-05-18T02:02:58.763Z,88.10
2018-05-18T02:05:26.257Z,93.57
2018-05-18T02:07:53.743Z,89.40
2018-05-18T02:10:21.223Z,91.97
2018-05-18T02:12:48.731Z,94.27
2018-05-18T02:15:16.207Z,93.37
2018-05-18T02:17:43.692Z,87.05
2018-05-18T02:20:11.201Z,93.80
2018-05-18T02:22:38.709Z,95.37
2018-05-18T02:25:06.208Z,92.20
2018-05-18T02:27:33.684Z,96.07
2018-05-18T02:30:01.171Z,96.17
2018-05-18T02:32:28.685Z,102.38
2018-05-18T02:34:56.171Z,100.80
2018-05-18T02:37:23.670Z,107.10
2018-05-18T02:39:51.167Z,105.57
2018-05-18T02:42:18.644Z,111.70
2018-05-18T02:44:46.150Z,116.00
2018-05-18T02:47:13.630Z,114.50
2018-05-18T02:49:41.150Z,116.73
2018-05-18T02:52:08.628Z,121.60
2018-05-18T02:54:36.144Z,116.30
2018-05-18T02:57:03.621Z,120.57
2018-05-18T02:59:31.111Z,110.37
2018-05-18T03:01:58.620Z,108.63
2018-05-18T03:04:26.105Z,105.47
2018-05-18T03:06:53.607Z,109.40
2018-05-18T03:09:21.328Z,116.60
2018-05-18T03:11:48.833Z,111.72
2018-05-18T03:14:16.337Z,106.83
2018-05-18T03:16:43.812Z,103.23
2018-05-18T03:19:11.309Z,102.97
2018-05-18T03:21:38.780Z,101.03
2018-05-18T03:24:06.276Z,102.50
2018-05-18T03:26:33.754Z,100.32
2018-05-18T03:29:01.248Z,101.30
2018-05-18T03:31:28.752Z,104.13
2018-05-18T03:33:56.224Z,103.87
2018-05-18T03:36:23.734Z,98.23
2018-05-18T03:38:51.218Z,100.20
2018-05-18T03:41:18.692Z,98.00
2018-05-18T03:43:46.183Z,102.17
2018-05-18T03:46:13.659Z,102.70
2018-05-18T03:48:41.191Z,98.67
2018-05-18T03:51:08.659Z,98.50
2018-05-18T03:53:36.148Z,101.30
2018-05-18T03:56:03.638Z,91.97
2018-05-18T03:58:31.119Z,95.97
2018-05-18T04:00:58.612Z,91.37
2018-05-18T04:03:37.865Z,93.03
2018-05-18T04:06:17.132Z,91.13
2018-05-18T04:08:53.625Z,88.57
2018-05-18T04:11:21.117Z,88.60
2018-05-18T04:13:48.592Z,84.37
2018-05-18T04:16:16.074Z,82.07
2018-05-18T04:18:43.577Z,82.40
2018-05-18T04:21:11.052Z,81.17
2018-05-18T04:23:38.542Z,86.25
2018-05-18T04:26:06.017Z,80.37
2018-05-18T04:28:33.518Z,79.87
2018-05-18T04:31:01.089Z,79.40
2018-05-18T04:33:28.507Z,78.93
2018-05-18T04:35:56.001Z,82.90
2018-05-18T04:38:23.476Z,78.23
2018-05-18T04:40:51.268Z,75.20
2018-05-18T04:43:18.762Z,75.28
2018-05-18T04:45:46.282Z,74.40
2018-05-18T04:48:13.967Z,73.93
2018-05-18T04:50:41.439Z,75.78
2018-05-18T04:53:08.951Z,73.57
2018-05-18T04:55:36.425Z,75.80
2018-05-18T04:58:03.900Z,75.70
2018-05-18T05:00:31.392Z,76.70
2018-05-18T05:02:58.856Z,69.30
2018-05-18T05:05:26.374Z,71.45
2018-05-18T05:07:53.872Z,69.13
2018-05-18T05:10:21.566Z,69.20
2018-05-18T05:12:49.065Z,68.93
2018-05-18T05:15:16.544Z,67.90
2018-05-18T05:17:44.035Z,72.67
2018-05-18T05:20:11.501Z,63.73
2018-05-18T05:22:38.972Z,70.10
2018-05-18T05:25:06.470Z,64.93
2018-05-18T05:27:33.942Z,62.67
2018-05-18T05:30:01.425Z,63.08
2018-05-18T05:32:28.897Z,62.27
2018-05-18T05:34:56.361Z,58.90
2018-05-18T05:37:23.859Z,56.80
2018-05-18T05:39:51.332Z,58.38
2018-05-18T05:42:18.825Z,53.20
2018-05-18T05:44:46.307Z,55.80
2018-05-18T05:47:13.776Z,52.43
2018-05-18T05:49:41.271Z,56.00
2018-05-18T05:52:08.737Z,56.83
2018-05-18T05:54:36.224Z,54.63
2018-05-18T05:57:03.684Z,56.73
2018-05-18T05:59:31.152Z,57.57
2018-05-18T06:01:58.635Z,57.40
2018-05-18T06:04:26.107Z,59.50
2018-05-18T06:06:53.596Z,57.62
2018-05-18T06:09:21.072Z,59.00
2018-05-18T06:11:48.539Z,59.75
2018-05-18T06:14:16.028Z,64.63
2018-05-18T06:16:43.496Z,66.72
2018-05-18T06:19:10.984Z,63.80
2018-05-18T06:21:38.456Z,59.10
2018-05-18T06:24:05.916Z,61.87
2018-05-18T06:26:33.409Z,65.17
2018-05-18T06:29:00.875Z,59.37
2018-05-18T06:31:28.379Z,57.10
2018-05-18T06:33:55.851Z,55.10
2018-05-18T06:36:23.342Z,58.37
2018-05-18T06:38:50.832Z,57.97
2018-05-18T06:41:18.349Z,58.78
2018-05-18T06:43:45.922Z,55.65
2018-05-18T06:46:13.392Z,58.77
2018-05-18T06:48:40.889Z,53.90
2018-05-18T06:51:08.368Z,55.47
2018-05-18T06:53:35.839Z,51.63
2018-05-18T06:56:03.335Z,53.73
2018-05-18T06:58:30.796Z,53.85
2018-05-18T07:00:58.260Z,56.73
2018-05-18T07:03:25.740Z,54.13
2018-05-18T07:05:53.207Z,51.77
2018-05-18T07:08:20.688Z,53.60
2018-05-18T07:10:48.628Z,52.70
2018-05-18T07:13:16.093Z,52.03
2018-05-18T07:15:43.581Z,50.07
2018-05-18T07:18:11.046Z,51.70
2018-05-18T07:20:38.545Z,51.97
2018-05-18T07:23:06.093Z,52.28
2018-05-18T07:25:33.524Z,50.00
2018-05-18T07:28:00.996Z,48.87
2018-05-18T07:30:28.464Z,51.13
2018-05-18T07:32:55.954Z,47.97
2018-05-18T07:35:23.419Z,48.27
2018-05-18T07:37:50.913Z,50.00
2018-05-18T07:40:18.391Z,51.80
2018-05-18T07:42:45.865Z,48.43
2018-05-18T07:45:13.348Z,47.30
2018-05-18T07:47:40.817Z,47.30
2018-05-18T07:50:08.321Z,45.65
2018-05-18T07:52:35.783Z,48.10
2018-05-18T07:55:03.255Z,48.40
2018-05-18T07:57:30.735Z,45.37
2018-05-18T07:59:58.201Z,45.97
2018-05-18T08:02:25.688Z,46.80
2018-05-18T08:04:53.157Z,44.97
2018-05-18T08:07:20.645Z,45.83
2018-05-18T08:09:48.124Z,48.50
2018-05-18T08:12:15.593Z,47.60
2018-05-18T08:14:43.077Z,44.67
2018-05-18T08:17:10.553Z,43.43
2018-05-18T08:19:38.036Z,41.97
2018-05-18T08:22:05.515Z,43.15
2018-05-18T08:24:33.013Z,38.87
2018-05-18T08:27:12.179Z,43.33
2018-05-18T08:29:39.623Z,39.20
2018-05-18T08:32:07.079Z,36.83
2018-05-18T08:34:34.549Z,40.03
2018-05-18T08:37:02.053Z,40.33
2018-05-18T08:39:29.515Z,40.47
2018-05-18T08:41:57.011Z,37.87
2018-05-18T08:44:24.504Z,41.30
2018-05-18T08:46:52.456Z,34.20
2018-05-18T08:49:19.939Z,42.58
2018-05-18T08:51:47.414Z,36.07
2018-05-18T08:54:14.899Z,35.20
2018-05-18T08:56:42.365Z,37.17
2018-05-18T08:59:09.844Z,34.67
2018-05-18T09:01:37.328Z,35.97
2018-05-18T09:04:04.800Z,34.90
2018-05-18T09:06:32.295Z,37.10
2018-05-18T09:08:59.821Z,37.97
2018-05-18T09:11:27.240Z,37.57
2018-05-18T09:13:54.717Z,36.47
2018-05-18T09:16:22.183Z,35.95
2018-05-18T09:18:49.666Z,35.20
2018-05-18T09:21:17.133Z,32.83
2018-05-18T09:23:44.602Z,34.67
2018-05-18T09:26:12.092Z,30.50
2018-05-18T09:28:39.570Z,30.33
2018-05-18T09:31:07.034Z,26.03
2018-05-18T09:33:34.517Z,26.33
2018-05-18T09:36:01.986Z,27.13
2018-05-18T09:38:29.670Z,27.67
2018-05-18T09:40:57.131Z,24.03
2018-05-18T09:43:24.595Z,26.60
2018-05-18T09:45:52.075Z,23.17
2018-05-18T09:48:19.540Z,26.95
2018-05-18T09:50:47.279Z,28.37
2018-05-18T09:53:14.743Z,24.90
2018-05-18T09:55:42.214Z,25.67
2018-05-18T09:58:10.127Z,27.37
2018-05-18T10:00:37.601Z,26.40
2018-05-18T10:03:05.100Z,26.03
2018-05-18T10:05:32.573Z,24.83
2018-05-18T10:08:00.037Z,28.30
2018-05-18T10:10:27.527Z,25.58
2018-05-18T10:12:54.984Z,26.83
2018-05-18T10:15:22.478Z,25.60
2018-05-18T10:17:49.940Z,24.20
2018-05-18T10:20:17.417Z,25.10
2018-05-18T10:22:44.901Z,20.77
2018-05-18T10:25:12.989Z,18.92
2018-05-18T10:27:40.480Z,21.23
2018-05-18T10:30:07.954Z,24.13
2018-05-18T10:32:35.428Z,21.57
2018-05-18T10:35:02.916Z,22.40
2018-05-18T10:37:30.383Z,20.67
2018-05-18T10:39:57.846Z,18.50
2018-05-18T10:42:25.331Z,20.03
2018-05-18T10:44:52.786Z,20.50
2018-05-18T10:47:20.276Z,25.00
2018-05-18T10:49:47.740Z,24.47
2018-05-18T10:52:15.196Z,25.73
2018-05-18T10:54:42.676Z,22.47
2018-05-18T10:57:10.136Z,19.57
2018-05-18T10:59:37.623Z,18.27
2018-05-18T11:02:05.083Z,17.70
2018-05-18T11:04:32.607Z,17.30
2018-05-18T11:07:00.178Z,19.60
2018-05-18T11:09:27.536Z,22.33
2018-05-18T11:11:55.015Z,18.77
2018-05-18T11:14:22.480Z,18.27
2018-05-18T11:16:50.220Z,16.57
2018-05-18T11:19:17.684Z,16.77
2018-05-18T11:21:45.160Z,17.27
2018-05-18T11:24:12.649Z,18.20
2018-05-18T11:26:40.112Z,18.30
2018-05-18T11:29:07.599Z,19.43
2018-05-18T11:31:35.064Z,17.53
2018-05-18T11:34:02.531Z,18.33
2018-05-18T11:36:30.013Z,18.70
2018-05-18T11:38:57.476Z,20.00
2018-05-18T11:41:24.958Z,20.03
2018-05-18T11:43:52.416Z,19.80
2018-05-18T11:46:19.875Z,17.90
2018-05-18T11:48:47.357Z,17.90
2018-05-18T11:51:14.820Z,17.63
2018-05-18T11:53:42.744Z,19.62
2018-05-18T11:56:10.208Z,20.45
2018-05-18T11:58:37.677Z,19.70
2018-05-18T12:01:05.160Z,17.13
2018-05-18T12:03:32.626Z,18.60
2018-05-18T12:06:00.121Z,16.17
2018-05-18T12:08:28.306Z,15.75
2018-05-18T12:10:55.775Z,17.23
2018-05-18T12:13:23.262Z,19.23
2018-05-18T12:15:50.738Z,17.10
2018-05-18T12:18:18.344Z,17.65
2018-05-18T12:20:45.806Z,19.37
2018-05-18T12:23:13.272Z,17.20
2018-05-18T12:25:40.757Z,15.73
2018-05-18T12:28:08.224Z,17.23
2018-05-18T12:30:35.720Z,16.80
2018-05-18T12:33:03.188Z,17.10
2018-05-18T12:35:30.849Z,17.77
2018-05-18T12:37:58.373Z,17.83
2018-05-18T12:40:25.819Z,16.47
2018-05-18T12:42:53.298Z,17.73
2018-05-18T12:45:20.767Z,17.62
2018-05-18T12:47:48.239Z,19.05
2018-05-18T12:50:15.724Z,16.90
2018-05-18T12:52:43.192Z,17.13
2018-05-18T12:55:11.080Z,16.10
2018-05-18T12:57:38.547Z,17.90
2018-05-18T13:00:06.012Z,15.40
2018-05-18T13:02:34.335Z,14.93
2018-05-18T13:05:01.811Z,15.23
2018-05-18T13:07:29.620Z,12.40
2018-05-18T13:09:57.088Z,13.70
2018-05-18T13:12:25.261Z,13.60
2018-05-18T13:14:52.747Z,14.27
2018-05-18T13:17:20.216Z,12.40
2018-05-18T13:19:47.702Z,14.38
2018-05-18T13:22:15.171Z,14.63
2018-05-18T13:24:42.637Z,12.37
2018-05-18T13:27:10.117Z,14.87
2018-05-18T13:29:37.700Z,14.07
2018-05-18T13:32:05.195Z,13.60
2018-05-18T13:34:32.661Z,12.80
2018-05-18T13:37:00.119Z,11.50
2018-05-18T13:39:27.608Z,14.70
2018-05-18T13:41:55.076Z,12.52
2018-05-18T13:44:22.580Z,13.70
2018-05-18T13:46:50.044Z,12.00
2018-05-18T13:49:17.552Z,12.83
2018-05-18T13:51:45.030Z,15.27
2018-05-18T13:54:12.500Z,12.32
2018-05-18T13:56:39.988Z,14.00
2018-05-18T13:59:07.476Z,13.93
2018-05-18T14:01:34.960Z,13.10
2018-05-18T14:04:02.425Z,12.53
2018-05-18T14:06:29.925Z,13.80
2018-05-18T14:08:57.384Z,6.50
2018-05-18T14:11:24.844Z,2.77
2018-05-18T14:13:52.321Z,3.35
2018-05-18T14:16:19.785Z,2.87
2018-05-18T14:18:47.260Z,3.70
2018-05-18T14:21:14.723Z,3.87
2018-05-18T14:23:42.959Z,3.53
2018-05-18T14:26:10.427Z,3.00
2018-05-18T14:28:37.892Z,3.47
2018-05-18T14:31:05.697Z,4.93
2018-05-18T14:33:33.148Z,4.97
2018-05-18T14:36:00.617Z,6.40
2018-05-18T14:38:28.107Z,6.50
2018-05-18T14:40:55.571Z,6.43
2018-05-18T14:43:23.049Z,7.47
2018-05-18T14:45:50.515Z,7.07
2018-05-18T14:48:17.991Z,12.03
2018-05-18T14:50:45.484Z,12.83
2018-05-18T14:53:12.969Z,14.93
2018-05-18T14:55:40.469Z,16.70
2018-05-18T14:58:07.938Z,15.30
2018-05-18T15:00:35.417Z,12.37
2018-05-18T15:03:02.895Z,11.95
2018-05-18T15:05:30.355Z,6.80
2018-05-18T15:07:57.855Z,7.60
2018-05-18T15:10:25.325Z,8.07
2018-05-18T15:12:52.791Z,9.80
2018-05-18T15:15:20.299Z,10.90
2018-05-18T15:17:47.833Z,9.80
2018-05-18T15:20:15.319Z,10.20
2018-05-18T15:22:42.789Z,10.00
2018-05-18T15:25:10.263Z,9.20
2018-05-18T15:27:37.749Z,8.57
2018-05-18T15:30:05.212Z,9.00
2018-05-18T15:32:32.690Z,9.47
2018-05-18T15:35:00.155Z,8.70
2018-05-18T15:37:27.722Z,7.57
2018-05-18T15:39:55.121Z,7.53
2018-05-18T15:42:22.580Z,8.02
2018-05-18T15:44:50.083Z,9.37
2018-05-18T15:47:17.544Z,8.27
2018-05-18T15:49:45.014Z,7.10
2018-05-18T15:52:12.519Z,8.50
2018-05-18T15:54:39.984Z,7.80
2018-05-18T15:57:07.465Z,7.57
2018-05-18T15:59:34.927Z,7.27
2018-05-18T16:02:02.412Z,7.00
2018-05-18T16:04:29.890Z,7.87
2018-05-18T16:06:57.925Z,7.70
2018-05-18T16:09:25.415Z,8.30
2018-05-18T16:11:52.871Z,7.43
2018-05-18T16:14:20.658Z,6.33
2018-05-18T16:16:48.124Z,7.27
2018-05-18T16:19:15.579Z,7.47
2018-05-18T16:21:43.053Z,6.93
2018-05-18T16:24:10.512Z,6.50
2018-05-18T16:26:37.995Z,7.43
2018-05-18T16:29:05.443Z,8.27
2018-05-18T16:31:32.911Z,9.30
2018-05-18T16:34:00.391Z,25.90
2018-05-18T16:36:27.852Z,9.27
2018-05-18T16:38:55.335Z,7.97
2018-05-18T16:41:22.800Z,10.40
2018-05-18T16:43:50.264Z,7.47
2018-05-18T16:46:17.751Z,9.02
2018-05-18T16:48:45.230Z,9.93
2018-05-18T16:51:12.715Z,6.63
2018-05-18T16:53:40.172Z,6.93
2018-05-18T16:56:07.657Z,6.55
2018-05-18T16:58:35.195Z,6.47
2018-05-18T17:01:02.659Z,6.07
2018-05-18T17:03:30.144Z,4.63
2018-05-18T17:05:57.611Z,6.37
2018-05-18T17:08:25.071Z,5.53
2018-05-18T17:10:52.536Z,4.83
2018-05-18T17:13:19.997Z,5.03
2018-05-18T17:15:47.463Z,5.30
2018-05-18T17:18:14.944Z,5.95
2018-05-18T17:20:42.433Z,4.90
2018-05-18T17:23:09.919Z,4.47
2018-05-18T17:25:37.368Z,4.50
2018-05-18T17:28:04.838Z,5.70
2018-05-18T17:30:32.288Z,4.53
2018-05-18T17:32:59.901Z,4.73
2018-05-18T17:35:27.304Z,5.70
2018-05-18T17:37:54.787Z,5.80
2018-05-18T17:40:22.343Z,4.93
2018-05-18T17:42:49.938Z,4.87
2018-05-18T17:45:17.428Z,4.78
2018-05-18T17:47:44.944Z,5.80
2018-05-18T17:50:12.471Z,18.87
2018-05-18T17:52:39.961Z,7.57
2018-05-18T17:55:07.453Z,6.40
2018-05-18T17:57:34.951Z,5.55
2018-05-18T18:00:02.424Z,7.60
2018-05-18T18:02:30.053Z,8.77
2018-05-18T18:04:57.580Z,9.07
2018-05-18T18:07:25.307Z,9.32
2018-05-18T18:09:52.804Z,9.83
2018-05-18T18:12:20.276Z,11.53
2018-05-18T18:14:47.769Z,10.53
2018-05-18T18:17:15.275Z,11.13
2018-05-18T18:19:42.787Z,12.20
2018-05-18T18:22:10.640Z,11.27
2018-05-18T18:24:38.134Z,11.53
2018-05-18T18:27:05.636Z,11.80
2018-05-18T18:29:33.100Z,11.12
2018-05-18T18:32:02.151Z,10.90
2018-05-18T18:34:30.622Z,9.55
2018-05-18T18:36:59.002Z,11.80
2018-05-18T18:39:27.448Z,10.27
2018-05-18T18:41:55.358Z,9.93
2018-05-18T18:44:23.601Z,10.68
2018-05-18T18:46:52.008Z,14.50
2018-05-18T18:49:20.116Z,12.13
2018-05-18T18:51:48.710Z,12.10
2018-05-18T18:54:16.752Z,12.13
2018-05-18T18:56:44.852Z,12.13
2018-05-18T18:59:12.676Z,11.60
2018-05-18T19:01:40.787Z,12.00
2018-05-18T19:04:09.415Z,9.93
2018-05-18T19:06:37.737Z,11.27
2018-05-18T19:09:06.696Z,10.93
2018-05-18T19:11:34.759Z,12.27
2018-05-18T19:14:02.848Z,13.10
2018-05-18T19:16:30.696Z,13.85
2018-05-18T19:18:58.976Z,11.30
2018-05-18T19:21:27.084Z,12.50
2018-05-18T19:23:55.290Z,12.60
2018-05-18T19:26:23.997Z,13.32
2018-05-18T19:28:51.493Z,15.70
2018-05-18T19:31:19.169Z,14.50
2018-05-18T19:33:46.983Z,17.00
2018-05-18T19:36:14.554Z,86.07
2018-05-18T19:38:42.070Z,84.33
2018-05-18T19:41:09.555Z,120.70
2018-05-18T19:43:37.032Z,23.37
2018-05-18T19:46:04.543Z,20.30
2018-05-18T19:48:32.049Z,19.10
2018-05-18T19:50:59.610Z,21.60
2018-05-18T19:53:27.092Z,18.20
2018-05-18T19:55:54.579Z,19.20
2018-05-18T19:58:22.099Z,19.57
2018-05-18T20:00:49.599Z,20.53
2018-05-18T20:03:17.103Z,21.02
2018-05-18T20:05:44.615Z,21.20
2018-05-18T20:08:12.124Z,21.50
2018-05-18T20:10:39.592Z,21.70
2018-05-18T20:13:07.079Z,20.08
2018-05-18T20:15:34.557Z,18.52
2018-05-18T20:18:02.132Z,22.17
2018-05-18T20:20:29.671Z,18.83
2018-05-18T20:22:57.147Z,19.80
2018-05-18T20:25:24.645Z,21.17
2018-05-18T20:27:52.129Z,20.20
2018-05-18T20:30:19.683Z,19.73
2018-05-18T20:32:47.160Z,16.67
2018-05-18T20:35:14.674Z,23.53
2018-05-18T20:37:42.149Z,22.52
2018-05-18T20:40:09.615Z,19.43
2018-05-18T20:42:37.179Z,18.17
2018-05-18T20:45:04.869Z,17.80
2018-05-18T20:47:32.593Z,21.00
2018-05-18T20:50:00.069Z,21.30
2018-05-18T20:52:27.548Z,20.70
2018-05-18T20:54:55.044Z,18.30
2018-05-18T20:57:22.507Z,17.37
2018-05-18T20:59:51.007Z,16.27
2018-05-18T21:02:18.488Z,104.27
2018-05-18T21:04:45.956Z,60.75
2018-05-18T21:07:13.719Z,17.63
2018-05-18T21:09:41.196Z,16.53
2018-05-18T21:12:08.682Z,15.17
2018-05-18T21:14:37.066Z,15.30
2018-05-18T21:17:04.712Z,15.00
2018-05-18T21:19:32.255Z,16.93
2018-05-18T21:21:59.805Z,13.30
2018-05-18T21:24:27.276Z,15.00
2018-05-18T21:26:54.768Z,15.98
2018-05-18T21:29:22.244Z,14.37
2018-05-18T21:31:49.717Z,14.90
2018-05-18T21:34:17.203Z,15.17
2018-05-18T21:36:44.672Z,14.25
2018-05-18T21:39:12.159Z,13.83
2018-05-18T21:41:39.619Z,16.57
2018-05-18T21:44:07.095Z,13.90
2018-05-18T21:46:34.579Z,14.43
2018-05-18T21:49:02.048Z,15.93
2018-05-18T21:51:30.279Z,172.07
2018-05-18T21:53:57.756Z,41.13
2018-05-18T21:56:25.224Z,20.73
2018-05-18T21:58:52.948Z,17.37
2018-05-18T22:01:20.436Z,17.08
2018-05-18T22:03:47.925Z,18.43
2018-05-18T22:06:15.612Z,17.67
2018-05-18T22:08:43.100Z,19.17
2018-05-18T22:11:10.910Z,19.43
2018-05-18T22:13:38.377Z,20.53
2018-05-18T22:16:06.136Z,20.23
2018-05-18T22:18:33.702Z,20.08
2018-05-18T22:21:01.344Z,21.17
2018-05-18T22:23:29.049Z,24.00
2018-05-18T22:25:56.600Z,22.17
2018-05-18T22:28:24.086Z,20.20
2018-05-18T22:30:51.641Z,22.02
2018-05-18T22:33:19.068Z,21.30
2018-05-18T22:35:46.541Z,22.20
2018-05-18T22:38:14.311Z,22.87
2018-05-18T22:40:41.907Z,23.80
2018-05-18T22:43:09.375Z,23.00
2018-05-18T22:45:36.877Z,21.57
2018-05-18T22:48:04.543Z,20.73
2018-05-18T22:50:33.128Z,19.10
2018-05-18T22:53:00.685Z,19.50
2018-05-18T22:55:28.156Z,20.13
2018-05-18T22:57:55.632Z,20.75
2018-05-18T23:00:26.833Z,19.23
2018-05-18T23:02:54.333Z,19.10
2018-05-18T23:05:21.805Z,20.80
2018-05-18T23:07:49.288Z,20.97
2018-05-18T23:10:17.115Z,20.50
2018-05-18T23:12:44.582Z,24.33
2018-05-18T23:15:12.070Z,23.17
2018-05-18T23:17:39.554Z,24.77
2018-05-18T23:20:07.049Z,22.50
2018-05-18T23:22:34.512Z,24.47
2018-05-18T23:25:01.989Z,24.20
2018-05-18T23:27:29.472Z,26.77
2018-05-18T23:29:56.948Z,24.50
2018-05-18T23:32:24.452Z,24.73
2018-05-18T23:34:51.920Z,22.97
2018-05-18T23:37:19.406Z,23.90
2018-05-18T23:39:46.895Z,26.20
2018-05-18T23:42:14.372Z,22.60
2018-05-18T23:44:41.883Z,25.40
2018-05-18T23:47:09.373Z,23.12
2018-05-18T23:49:36.875Z,22.63
2018-05-18T23:52:04.343Z,24.40
2018-05-18T23:54:31.817Z,23.97
